createdAt,value
2023-04-15T00:01:43.840Z,92.80
2023-04-15T00:04:18.658Z,92.90
2023-04-15T00:07:05.379Z,93.20
2023-04-15T00:09:42.426Z,93.00
2023-04-15T00:12:38.316Z,93.20
2023-04-15T00:15:39.988Z,93.10
2023-04-15T00:37:17.787Z,93.00
2023-04-15T01:02:20.676Z,93.00
2023-04-15T01:05:21.735Z,93.30
2023-04-15T01:25:21.760Z,93.20
2023-04-15T01:27:54.910Z,93.20
2023-04-15T01:30:39.769Z,93.30
2023-04-15T01:33:08.839Z,93.30
2023-04-15T01:35:49.477Z,93.30
2023-04-15T01:38:21.710Z,93.30
2023-04-15T01:40:54.199Z,93.30
2023-04-15T01:43:28.931Z,93.40
2023-04-15T01:46:00.896Z,93.40
2023-04-15T01:48:41.332Z,92.90
2023-04-15T01:51:13.290Z,92.80
2023-04-15T01:58:19.929Z,93.10
2023-04-15T02:09:24.209Z,93.00
2023-04-15T02:15:58.069Z,93.30
2023-04-15T02:54:16.879Z,93.60
2023-04-15T03:51:04.014Z,94.30
2023-04-15T03:53:54.631Z,94.20
2023-04-15T03:59:55.454Z,94.30
2023-04-15T04:06:03.997Z,94.40
2023-04-15T04:12:37.186Z,94.70
2023-04-15T04:16:05.341Z,94.10
2023-04-15T04:32:23.203Z,94.40
2023-04-15T04:35:44.278Z,94.60
2023-04-15T04:39:11.375Z,94.40
2023-04-15T04:48:37.837Z,94.80
2023-04-15T04:51:26.553Z,94.90
2023-04-15T04:57:50.045Z,94.90
2023-04-15T05:00:28.169Z,94.50
2023-04-15T05:03:07.756Z,94.40
2023-04-15T05:08:49.219Z,94.30
2023-04-15T05:11:34.730Z,94.80
2023-04-15T05:14:40.452Z,94.50
2023-04-15T05:20:26.686Z,94.10
2023-04-15T05:23:17.184Z,94.20
2023-04-15T05:26:05.435Z,94.20
2023-04-15T05:29:01.757Z,94.40
2023-04-15T05:31:54.409Z,94.30
2023-04-15T05:34:34.525Z,94.40
2023-04-15T05:37:13.577Z,94.20
2023-04-15T05:39:51.840Z,94.20
2023-04-15T05:45:44.755Z,94.60
2023-04-15T05:48:34.586Z,94.30
2023-04-15T05:54:43.632Z,94.00
2023-04-15T06:00:06.597Z,94.30
2023-04-15T06:02:57.633Z,94.30
2023-04-15T06:14:03.371Z,93.70
2023-04-15T06:16:42.237Z,93.50
2023-04-15T06:19:21.928Z,93.30
2023-04-15T06:21:53.823Z,93.40
2023-04-15T06:24:22.695Z,93.60
2023-04-15T06:26:52.716Z,93.70
2023-04-15T06:29:23.410Z,93.70
2023-04-15T06:31:57.926Z,93.60
2023-04-15T06:34:33.658Z,93.40
2023-04-15T06:37:05.776Z,93.50
2023-04-15T06:39:35.104Z,93.50
2023-04-15T06:42:04.869Z,93.60
2023-04-15T06:45:25.773Z,93.40
2023-04-15T06:48:14.407Z,93.30
2023-04-15T06:54:36.972Z,93.00
2023-04-15T06:57:38.972Z,92.60
2023-04-15T07:03:40.514Z,92.50
2023-04-15T07:15:22.311Z,92.20
2023-04-15T07:20:49.976Z,92.30
2023-04-15T07:27:03.536Z,91.50
2023-04-15T07:41:40.384Z,91.00
2023-04-15T07:44:20.640Z,90.70
2023-04-15T08:03:31.360Z,90.00
2023-04-15T08:06:12.796Z,90.00
2023-04-15T08:19:23.992Z,89.10
2023-04-15T08:28:42.210Z,88.00
2023-04-15T08:31:20.785Z,87.70
2023-04-15T08:38:24.394Z,87.10
2023-04-15T08:41:35.711Z,86.30
2023-04-15T08:52:28.809Z,84.60
2023-04-15T08:57:48.261Z,84.00
2023-04-15T09:00:44.223Z,83.40
2023-04-15T09:03:24.402Z,83.20
2023-04-15T09:06:40.080Z,83.20
2023-04-15T09:09:41.193Z,82.20
2023-04-15T09:12:38.566Z,81.90
2023-04-15T09:15:46.283Z,81.80
2023-04-15T09:18:59.568Z,81.20
2023-04-15T09:22:08.577Z,81.10
2023-04-15T09:24:56.925Z,81.40
2023-04-15T09:27:43.219Z,81.60
2023-04-15T09:30:49.918Z,81.40
2023-04-15T09:33:29.579Z,80.60
2023-04-15T09:36:10.920Z,81.20
2023-04-15T09:39:07.893Z,80.50
2023-04-15T09:41:56.964Z,80.60
2023-04-15T09:48:08.924Z,79.90
2023-04-15T09:54:33.129Z,79.30
2023-04-15T09:57:41.157Z,79.70
2023-04-15T10:01:00.897Z,79.40
2023-04-15T10:03:51.296Z,79.50
2023-04-15T10:24:40.312Z,78.30
2023-04-15T10:27:30.031Z,78.40
2023-04-15T10:30:28.496Z,78.10
2023-04-15T10:33:18.328Z,78.30
2023-04-15T10:36:04.003Z,77.70
2023-04-15T10:38:57.549Z,77.90
2023-04-15T10:41:41.616Z,77.90
2023-04-15T10:44:44.512Z,78.00
2023-04-15T10:47:40.264Z,77.80
2023-04-15T10:50:14.956Z,77.70
2023-04-15T10:52:48.908Z,77.50
2023-04-15T10:55:28.339Z,77.40
2023-04-15T11:06:34.811Z,77.30
2023-04-15T11:09:34.307Z,77.00
2023-04-15T11:12:31.372Z,76.60
2023-04-15T13:05:15.570Z,70.00
2023-04-15T13:07:48.867Z,70.10
2023-04-15T13:10:19.477Z,70.10
2023-04-15T13:13:05.921Z,70.10
2023-04-15T13:24:52.298Z,69.30
2023-04-15T13:40:36.481Z,69.50
2023-04-15T13:43:23.514Z,69.00
2023-04-15T13:47:18.796Z,69.50
2023-04-15T13:49:44.816Z,68.80
2023-04-15T13:52:13.110Z,68.70
2023-04-15T13:54:41.723Z,68.80
2023-04-15T13:57:10.087Z,68.50
2023-04-15T13:59:38.349Z,67.70
2023-04-15T14:02:08.891Z,67.30
2023-04-15T14:04:37.108Z,67.00
2023-04-15T14:07:06.979Z,66.50
2023-04-15T14:09:55.290Z,65.90
2023-04-15T14:12:43.298Z,66.00
2023-04-15T14:15:36.605Z,65.80
2023-04-15T14:18:04.849Z,65.10
2023-04-15T14:20:33.316Z,64.90
2023-04-15T14:23:03.126Z,64.90
2023-04-15T14:25:34.113Z,65.00
2023-04-15T14:28:03.453Z,65.30
2023-04-15T14:30:32.689Z,65.20
2023-04-15T14:33:01.098Z,65.00
2023-04-15T14:35:29.388Z,64.70
2023-04-15T14:37:57.744Z,64.20
2023-04-15T15:28:46.431Z,62.80
2023-04-15T15:31:47.293Z,62.70
2023-04-15T16:24:00.106Z,61.80
2023-04-15T16:26:42.335Z,61.90
2023-04-15T16:30:32.365Z,62.40
2023-04-15T16:33:09.673Z,61.90
2023-04-15T16:36:12.609Z,62.30
2023-04-15T16:42:58.035Z,62.20
2023-04-15T16:49:59.689Z,62.50
2023-04-15T16:56:28.067Z,62.50
2023-04-15T17:54:30.471Z,64.90
2023-04-15T18:13:50.963Z,65.00
2023-04-15T18:16:43.043Z,65.50
2023-04-15T18:30:59.602Z,66.10
2023-04-15T18:33:34.020Z,66.50
2023-04-15T18:41:04.040Z,66.90
2023-04-15T19:30:44.383Z,68.00
2023-04-15T19:35:09.940Z,68.40
2023-04-15T19:39:36.655Z,68.50
2023-04-15T20:00:23.444Z,69.00
2023-04-15T20:03:30.379Z,68.70
2023-04-15T20:14:48.764Z,69.00
2023-04-15T20:18:46.223Z,69.40
2023-04-15T20:21:06.329Z,69.50
2023-04-15T20:23:37.311Z,69.40
2023-04-15T20:26:18.276Z,69.90
2023-04-15T20:29:11.185Z,69.80
2023-04-15T20:39:41.746Z,70.00
2023-04-15T20:43:00.029Z,70.10
2023-04-15T20:46:32.566Z,69.70
2023-04-15T20:49:39.667Z,70.00
2023-04-15T20:56:33.836Z,70.30
2023-04-15T20:59:16.219Z,70.30
2023-04-15T21:05:38.131Z,70.60
2023-04-15T21:08:10.704Z,71.10
2023-04-15T21:10:48.921Z,70.80
2023-04-15T21:13:17.778Z,70.70
2023-04-15T21:15:51.810Z,71.10
2023-04-15T21:18:22.809Z,71.30
2023-04-15T21:20:59.124Z,71.20
2023-04-15T21:23:28.865Z,71.40
2023-04-15T21:25:57.516Z,71.70
2023-04-15T21:28:31.373Z,71.50
2023-04-15T21:31:00.603Z,71.80
2023-04-15T21:33:32.781Z,71.80
2023-04-15T21:36:03.226Z,71.80
2023-04-15T21:38:31.934Z,72.10
2023-04-15T21:41:05.079Z,72.20
2023-04-15T21:43:36.131Z,72.00
2023-04-15T21:46:22.294Z,72.30
2023-04-15T21:48:58.539Z,72.10
2023-04-15T21:51:41.504Z,71.90
2023-04-15T21:54:10.331Z,72.20
2023-04-15T21:56:46.359Z,72.20
2023-04-15T21:59:19.846Z,72.50
2023-04-15T22:01:48.964Z,72.60
2023-04-15T22:04:17.919Z,72.60
2023-04-15T22:07:03.760Z,72.80
2023-04-15T22:09:34.329Z,72.50
2023-04-15T22:12:05.899Z,72.70
2023-04-15T22:14:34.149Z,72.60
2023-04-15T22:17:02.524Z,72.60
2023-04-15T22:19:31.159Z,72.60
2023-04-15T22:22:01.110Z,72.70
2023-04-15T22:24:35.083Z,72.60
2023-04-15T22:27:08.260Z,72.70
2023-04-15T22:29:36.460Z,73.50
2023-04-15T22:32:05.731Z,72.80
2023-04-15T22:34:36.470Z,73.90
2023-04-15T22:37:12.461Z,73.30
2023-04-15T22:39:41.275Z,73.20
2023-04-15T22:42:18.596Z,73.40
2023-04-15T22:44:49.306Z,73.60
2023-04-15T22:47:17.854Z,73.40
2023-04-15T22:49:48.951Z,73.50
2023-04-15T22:52:30.441Z,73.40
2023-04-15T22:55:04.409Z,73.30
2023-04-15T22:57:43.089Z,73.60
2023-04-15T23:00:16.085Z,73.50
2023-04-15T23:02:47.915Z,73.40
2023-04-15T23:05:19.832Z,73.40
2023-04-15T23:07:51.352Z,73.30
2023-04-15T23:10:24.240Z,73.20
2023-04-15T23:12:53.195Z,73.50
2023-04-15T23:15:25.942Z,73.60
2023-04-15T23:17:54.750Z,74.50
2023-04-15T23:20:24.989Z,73.60
2023-04-15T23:23:00.365Z,73.80
2023-04-15T23:25:39.887Z,74.00
2023-04-15T23:28:08.481Z,73.70
2023-04-15T23:30:37.976Z,73.60
2023-04-15T23:33:06.726Z,73.60
2023-04-15T23:35:37.748Z,74.00
2023-04-15T23:38:07.887Z,73.60
2023-04-15T23:40:43.690Z,73.70
2023-04-15T23:43:12.100Z,73.80
2023-04-15T23:45:44.994Z,73.80
2023-04-15T23:48:13.828Z,73.90
2023-04-15T23:50:42.835Z,73.80
2023-04-15T23:53:12.791Z,73.90
2023-04-15T23:55:53.209Z,73.90
2023-04-15T23:58:25.377Z,74.10
